createdAt,value
2023-03-20T00:02:06.790Z,7.32
2023-03-20T00:04:34.890Z,9.05
2023-03-20T00:07:03.955Z,8.85
2023-03-20T00:09:32.934Z,8.93
2023-03-20T00:12:01.294Z,8.73
2023-03-20T00:14:29.420Z,7.70
2023-03-20T00:16:58.614Z,8.88
2023-03-20T00:19:29.536Z,8.02
2023-03-20T00:21:57.878Z,8.70
2023-03-20T00:24:25.767Z,9.82
2023-03-20T00:26:55.179Z,7.88
2023-03-20T00:29:24.877Z,5.53
2023-03-20T00:31:53.262Z,6.25
2023-03-20T00:34:25.993Z,4.33
2023-03-20T00:36:54.723Z,5.18
2023-03-20T00:39:24.248Z,4.75
2023-03-20T00:41:54.608Z,4.65
2023-03-20T00:44:26.618Z,5.40
2023-03-20T00:46:56.587Z,5.47
2023-03-20T00:49:28.342Z,4.40
2023-03-20T00:51:56.754Z,7.55
2023-03-20T00:54:24.581Z,4.22
2023-03-20T00:56:59.124Z,5.85
2023-03-20T00:59:30.000Z,6.43
2023-03-20T01:01:58.858Z,12.45
2023-03-20T01:04:35.925Z,7.90
2023-03-20T01:07:04.365Z,7.72
2023-03-20T01:09:32.323Z,7.10
2023-03-20T01:12:00.864Z,8.90
2023-03-20T01:14:28.422Z,7.35
2023-03-20T01:16:56.437Z,8.55
2023-03-20T01:19:24.000Z,9.30
2023-03-20T01:21:52.986Z,7.45
2023-03-20T01:24:20.934Z,6.30
2023-03-20T01:26:49.296Z,6.72
2023-03-20T01:29:20.421Z,7.10
2023-03-20T01:31:48.738Z,7.32
2023-03-20T01:34:17.473Z,7.78
2023-03-20T01:36:51.360Z,6.80
2023-03-20T01:39:21.759Z,5.57
2023-03-20T01:41:50.938Z,5.38
2023-03-20T01:44:22.580Z,4.55
2023-03-20T01:46:51.759Z,4.85
2023-03-20T01:49:57.169Z,5.67
2023-03-20T01:52:24.778Z,5.20
2023-03-20T01:54:54.194Z,6.15
2023-03-20T01:57:26.569Z,5.57
2023-03-20T02:00:01.767Z,6.80
2023-03-20T02:02:32.438Z,9.17
2023-03-20T02:05:04.785Z,7.65
2023-03-20T02:07:34.445Z,7.20
2023-03-20T02:10:05.656Z,8.15
2023-03-20T02:12:34.602Z,8.63
2023-03-20T02:15:02.718Z,7.57
2023-03-20T02:17:30.581Z,7.00
2023-03-20T02:20:07.937Z,6.47
2023-03-20T02:23:04.512Z,5.10
2023-03-20T02:26:04.631Z,7.35
2023-03-20T02:29:01.056Z,7.90
2023-03-20T02:31:54.438Z,5.80
2023-03-20T02:34:45.593Z,7.72
2023-03-20T02:37:57.429Z,5.93
2023-03-20T02:40:34.673Z,4.88
2023-03-20T02:43:11.348Z,5.33
2023-03-20T02:45:48.961Z,5.28
2023-03-20T02:48:28.715Z,5.75
2023-03-20T02:51:02.376Z,6.22
2023-03-20T02:53:41.071Z,6.28
2023-03-20T02:56:17.578Z,6.57
2023-03-20T02:58:52.479Z,6.85
2023-03-20T03:01:26.769Z,8.65
2023-03-20T03:03:58.085Z,8.98
2023-03-20T03:06:30.480Z,7.53
2023-03-20T03:09:05.001Z,6.60
2023-03-20T03:11:37.055Z,6.40
2023-03-20T03:14:06.588Z,6.53
2023-03-20T03:16:39.115Z,8.05
2023-03-20T03:19:10.609Z,8.88
2023-03-20T03:21:40.744Z,8.37
2023-03-20T03:24:39.228Z,7.32
2023-03-20T03:27:15.008Z,5.68
2023-03-20T03:29:44.126Z,6.47
2023-03-20T03:34:47.627Z,6.43
2023-03-20T03:37:23.216Z,5.75
2023-03-20T03:39:54.931Z,5.38
2023-03-20T03:42:30.894Z,4.88
2023-03-20T03:45:04.668Z,7.68
2023-03-20T03:47:34.560Z,6.70
2023-03-20T03:50:07.806Z,5.75
2023-03-20T03:52:36.349Z,6.68
2023-03-20T03:55:09.679Z,5.30
2023-03-20T03:57:42.283Z,7.55
2023-03-20T04:00:15.000Z,5.30
2023-03-20T04:02:44.965Z,7.25
2023-03-20T04:05:14.540Z,6.70
2023-03-20T04:07:45.852Z,5.22
2023-03-20T04:10:16.262Z,5.55
2023-03-20T04:12:45.221Z,5.90
2023-03-20T04:15:14.061Z,5.40
2023-03-20T04:17:42.364Z,4.10
2023-03-20T04:20:12.301Z,4.68
2023-03-20T04:22:40.277Z,5.07
2023-03-20T04:25:10.509Z,5.83
2023-03-20T04:27:39.584Z,5.07
2023-03-20T04:30:08.762Z,4.75
2023-03-20T04:32:36.658Z,7.38
2023-03-20T04:35:04.645Z,5.28
2023-03-20T04:37:32.545Z,6.77
2023-03-20T04:40:00.250Z,5.82
2023-03-20T04:42:28.085Z,5.05
2023-03-20T04:44:57.300Z,6.28
2023-03-20T04:47:24.859Z,4.80
2023-03-20T04:49:53.579Z,5.17
2023-03-20T04:52:21.558Z,4.65
2023-03-20T04:54:49.424Z,4.45
2023-03-20T04:57:17.851Z,6.05
2023-03-20T04:59:45.400Z,4.88
2023-03-20T05:02:15.282Z,4.73
2023-03-20T05:04:43.414Z,4.40
2023-03-20T05:07:11.709Z,4.15
2023-03-20T05:09:39.538Z,5.22
2023-03-20T05:12:08.069Z,4.65
2023-03-20T05:14:36.177Z,5.47
2023-03-20T05:17:03.885Z,4.88
2023-03-20T05:19:32.808Z,7.57
2023-03-20T05:22:01.331Z,11.00
2023-03-20T05:24:29.458Z,9.93
2023-03-20T05:26:57.069Z,8.80
2023-03-20T05:29:26.470Z,12.57
2023-03-20T05:31:55.416Z,10.82
2023-03-20T05:34:23.381Z,9.38
2023-03-20T05:36:52.830Z,10.40
2023-03-20T05:39:22.224Z,13.77
2023-03-20T05:41:50.295Z,12.68
2023-03-20T05:44:18.362Z,10.82
2023-03-20T05:46:46.245Z,10.48
2023-03-20T05:49:14.184Z,9.40
2023-03-20T05:51:42.510Z,6.97
2023-03-20T05:54:11.722Z,7.28
2023-03-20T05:56:39.617Z,8.43
2023-03-20T05:59:07.592Z,6.97
2023-03-20T06:01:35.436Z,6.63
2023-03-20T06:04:03.228Z,7.70
2023-03-20T06:06:31.367Z,10.30
2023-03-20T06:08:58.960Z,9.25
2023-03-20T06:11:28.720Z,8.23
2023-03-20T06:13:58.298Z,10.60
2023-03-20T06:16:27.073Z,12.70
2023-03-20T06:18:54.817Z,16.17
2023-03-20T06:21:22.617Z,13.18
2023-03-20T06:23:50.920Z,9.95
2023-03-20T06:26:18.523Z,11.13
2023-03-20T06:28:48.017Z,10.40
2023-03-20T06:31:16.570Z,9.35
2023-03-20T06:33:45.273Z,10.38
2023-03-20T06:36:13.629Z,9.45
2023-03-20T06:38:41.700Z,10.27
2023-03-20T06:41:10.121Z,10.77
2023-03-20T06:43:39.470Z,11.88
2023-03-20T06:46:09.153Z,12.45
2023-03-20T06:48:38.760Z,11.77
2023-03-20T06:51:07.821Z,11.43
2023-03-20T06:53:36.173Z,10.83
2023-03-20T06:56:04.358Z,10.82
2023-03-20T06:58:32.141Z,10.07
2023-03-20T07:00:59.735Z,9.93
2023-03-20T07:03:28.810Z,13.25
2023-03-20T07:05:56.529Z,13.50
2023-03-20T07:08:24.708Z,14.70
2023-03-20T07:10:52.930Z,13.75
2023-03-20T07:13:20.882Z,14.38
2023-03-20T07:16:03.489Z,14.32
2023-03-20T07:18:33.624Z,12.10
2023-03-20T07:21:03.280Z,12.25
2023-03-20T07:23:32.278Z,14.73
2023-03-20T07:26:00.154Z,12.85
2023-03-20T07:28:28.743Z,14.43
2023-03-20T07:30:56.794Z,13.70
2023-03-20T07:33:24.705Z,12.25
2023-03-20T07:35:57.247Z,13.27
2023-03-20T07:38:25.378Z,13.60
2023-03-20T07:40:54.778Z,12.30
2023-03-20T07:43:22.397Z,12.17
2023-03-20T07:45:50.392Z,12.85
2023-03-20T07:48:18.032Z,12.85
2023-03-20T07:50:45.620Z,12.65
2023-03-20T07:53:14.788Z,12.95
2023-03-20T07:55:42.387Z,10.70
2023-03-20T07:58:10.324Z,13.18
2023-03-20T08:00:37.981Z,11.38
2023-03-20T08:03:05.850Z,12.77
2023-03-20T08:05:34.627Z,12.73
2023-03-20T08:08:02.890Z,9.63
2023-03-20T08:10:32.302Z,9.85
2023-03-20T08:12:59.946Z,10.30
2023-03-20T08:15:27.754Z,9.98
2023-03-20T08:17:57.846Z,11.00
2023-03-20T08:20:26.346Z,13.37
2023-03-20T08:22:54.269Z,10.85
2023-03-20T08:25:21.903Z,10.93
2023-03-20T08:27:51.639Z,8.93
2023-03-20T08:30:19.318Z,10.05
2023-03-20T08:32:46.991Z,9.53
2023-03-20T08:35:31.814Z,10.23
2023-03-20T08:38:00.203Z,9.40
2023-03-20T08:40:28.210Z,12.98
2023-03-20T08:42:57.374Z,10.20
2023-03-20T08:45:26.569Z,10.27
2023-03-20T08:47:55.077Z,9.73
2023-03-20T08:50:22.661Z,9.43
2023-03-20T08:52:50.570Z,12.00
2023-03-20T08:55:18.600Z,8.68
2023-03-20T08:57:46.876Z,8.53
2023-03-20T09:00:18.724Z,9.85
2023-03-20T09:02:46.648Z,8.68
2023-03-20T09:05:14.252Z,9.90
2023-03-20T09:07:41.885Z,7.22
2023-03-20T09:10:11.475Z,9.80
2023-03-20T09:12:39.427Z,9.43
2023-03-20T09:15:08.169Z,9.40
2023-03-20T09:17:37.603Z,8.80
2023-03-20T09:20:06.337Z,11.40
2023-03-20T09:22:34.386Z,9.33
2023-03-20T09:25:02.167Z,8.20
2023-03-20T09:27:29.955Z,9.70
2023-03-20T09:29:57.565Z,11.50
2023-03-20T09:32:26.602Z,8.05
2023-03-20T09:34:55.783Z,6.93
2023-03-20T09:37:23.801Z,11.40
2023-03-20T09:39:51.885Z,10.80
2023-03-20T09:42:33.513Z,9.45
2023-03-20T09:45:11.119Z,6.65
2023-03-20T09:47:45.715Z,10.50
2023-03-20T09:50:24.141Z,10.13
2023-03-20T09:52:59.186Z,7.45
2023-03-20T09:55:32.725Z,7.15
2023-03-20T09:58:08.730Z,7.55
2023-03-20T10:00:37.285Z,5.47
2023-03-20T10:03:08.197Z,5.68
2023-03-20T10:05:41.094Z,5.90
2023-03-20T10:08:17.011Z,5.32
2023-03-20T10:10:51.536Z,5.90
2023-03-20T10:13:36.603Z,6.77
2023-03-20T10:16:13.443Z,5.50
2023-03-20T10:18:47.566Z,5.53
2023-03-20T10:21:20.045Z,4.82
2023-03-20T10:23:57.482Z,4.78
2023-03-20T10:26:25.567Z,4.70
2023-03-20T10:28:58.814Z,5.85
2023-03-20T10:31:45.299Z,4.57
2023-03-20T10:34:32.221Z,4.63
2023-03-20T10:37:16.966Z,5.25
2023-03-20T10:39:56.435Z,4.57
2023-03-20T10:42:28.539Z,5.97
2023-03-20T10:44:59.752Z,5.07
2023-03-20T10:47:31.870Z,4.68
2023-03-20T10:50:04.371Z,4.45
2023-03-20T10:52:37.036Z,4.90
2023-03-20T10:55:07.853Z,3.65
2023-03-20T10:57:38.386Z,3.25
2023-03-20T11:00:12.813Z,4.75
2023-03-20T11:02:41.006Z,4.30
2023-03-20T11:05:21.413Z,3.27
2023-03-20T11:07:54.436Z,3.25
2023-03-20T11:10:27.682Z,2.83
2023-03-20T11:12:55.493Z,4.75
2023-03-20T11:15:25.903Z,2.80
2023-03-20T11:17:56.127Z,3.57
2023-03-20T11:20:25.208Z,3.47
2023-03-20T11:22:59.821Z,4.30
2023-03-20T11:25:32.219Z,3.05
2023-03-20T11:28:20.525Z,3.15
2023-03-20T11:31:03.910Z,3.33
2023-03-20T11:33:34.854Z,3.13
2023-03-20T11:36:02.503Z,3.90
2023-03-20T11:38:32.856Z,3.55
2023-03-20T11:41:00.548Z,2.35
2023-03-20T11:43:29.231Z,2.80
2023-03-20T11:45:59.170Z,2.80
2023-03-20T11:48:37.330Z,2.55
2023-03-20T11:51:08.183Z,2.80
2023-03-20T11:53:40.386Z,2.95
2023-03-20T11:56:11.816Z,3.67
2023-03-20T11:58:51.806Z,2.63
2023-03-20T12:01:19.411Z,2.70
2023-03-20T12:03:55.668Z,2.50
2023-03-20T12:06:26.257Z,2.83
2023-03-20T12:08:59.996Z,2.50
2023-03-20T12:11:46.533Z,2.13
2023-03-20T12:14:23.479Z,2.00
2023-03-20T12:16:55.229Z,2.75
2023-03-20T12:19:30.776Z,2.15
2023-03-20T12:22:04.506Z,2.37
2023-03-20T12:24:41.317Z,1.90
2023-03-20T12:27:24.919Z,3.33
2023-03-20T12:29:59.016Z,3.30
2023-03-20T12:32:31.260Z,3.60
2023-03-20T12:35:03.750Z,2.37
2023-03-20T12:37:32.290Z,2.33
2023-03-20T12:40:04.440Z,4.25
2023-03-20T12:42:42.869Z,2.83
2023-03-20T12:45:12.497Z,2.95
2023-03-20T12:47:58.227Z,2.60
2023-03-20T12:50:33.115Z,2.28
2023-03-20T12:53:24.240Z,3.13
2023-03-20T12:56:02.555Z,2.17
2023-03-20T12:58:42.298Z,3.47
2023-03-20T13:01:17.327Z,2.33
2023-03-20T13:04:00.599Z,3.55
2023-03-20T13:06:40.542Z,3.67
2023-03-20T13:09:45.474Z,2.47
2023-03-20T13:12:23.080Z,2.47
2023-03-20T13:14:59.614Z,1.70
2023-03-20T13:17:34.954Z,1.67
2023-03-20T13:20:22.216Z,3.15
2023-03-20T13:22:59.194Z,2.78
2023-03-20T13:25:45.471Z,5.70
2023-03-20T13:28:22.042Z,3.03
2023-03-20T13:30:57.850Z,2.08
2023-03-20T13:33:38.563Z,2.92
2023-03-20T13:36:18.489Z,5.57
2023-03-20T13:38:51.245Z,1.85
2023-03-20T13:41:19.140Z,3.07
2023-03-20T13:43:54.380Z,2.60
2023-03-20T13:46:26.509Z,1.88
2023-03-20T13:48:57.126Z,3.38
2023-03-20T13:51:30.468Z,3.40
2023-03-20T13:54:14.560Z,3.43
2023-03-20T13:56:51.957Z,2.50
2023-03-20T13:59:48.997Z,2.85
2023-03-20T14:02:28.775Z,3.78
2023-03-20T14:05:04.049Z,2.60
2023-03-20T14:07:34.607Z,3.00
2023-03-20T14:10:39.761Z,2.50
2023-03-20T14:13:14.390Z,3.47
2023-03-20T14:15:50.800Z,2.28
2023-03-20T14:18:19.982Z,3.00
2023-03-20T14:20:55.518Z,2.50
2023-03-20T14:23:40.853Z,3.17
2023-03-20T14:26:21.018Z,3.50
2023-03-20T14:28:59.259Z,3.20
2023-03-20T14:31:32.877Z,2.20
2023-03-20T14:34:09.674Z,1.93
2023-03-20T14:36:53.084Z,3.70
2023-03-20T14:39:29.703Z,2.80
2023-03-20T14:42:08.814Z,3.00
2023-03-20T14:44:55.812Z,7.63
2023-03-20T14:47:37.336Z,8.50
2023-03-20T14:50:11.914Z,7.25
2023-03-20T14:52:53.256Z,8.00
2023-03-20T14:55:33.552Z,12.65
2023-03-20T14:58:47.578Z,57.90
2023-03-20T15:01:20.107Z,20.13
2023-03-20T15:03:52.315Z,8.73
2023-03-20T15:06:22.400Z,19.40
2023-03-20T15:08:53.094Z,17.13
2023-03-20T15:11:22.009Z,7.28
2023-03-20T15:13:51.040Z,7.00
2023-03-20T15:16:28.092Z,7.13
2023-03-20T15:18:57.650Z,3.85
2023-03-20T15:21:31.552Z,3.85
2023-03-20T15:24:00.120Z,3.92
2023-03-20T15:26:28.955Z,4.13
2023-03-20T15:29:02.575Z,4.90
2023-03-20T15:31:32.720Z,3.72
2023-03-20T15:34:04.713Z,4.05
2023-03-20T15:36:35.602Z,3.45
2023-03-20T15:39:08.288Z,3.03
2023-03-20T15:41:39.509Z,4.43
2023-03-20T15:44:22.630Z,4.75
2023-03-20T15:46:57.693Z,3.83
2023-03-20T15:49:28.220Z,3.60
2023-03-20T15:51:59.792Z,5.37
2023-03-20T15:54:27.913Z,4.40
2023-03-20T15:57:00.782Z,4.13
2023-03-20T15:59:31.290Z,4.68
2023-03-20T16:02:00.019Z,9.68
2023-03-20T16:04:30.223Z,5.07
2023-03-20T16:07:00.024Z,8.20
2023-03-20T16:09:29.133Z,9.80
2023-03-20T16:11:59.078Z,10.80
2023-03-20T16:14:28.591Z,10.32
2023-03-20T16:16:58.765Z,5.70
2023-03-20T16:19:27.447Z,6.03
2023-03-20T16:21:58.912Z,4.05
2023-03-20T16:24:29.443Z,4.50
2023-03-20T16:26:58.648Z,5.22
2023-03-20T16:29:28.997Z,5.10
2023-03-20T16:31:59.519Z,5.13
2023-03-20T16:34:33.683Z,5.22
2023-03-20T16:37:09.002Z,6.13
2023-03-20T16:39:37.103Z,6.03
2023-03-20T16:42:16.956Z,7.20
2023-03-20T16:44:44.971Z,7.20
2023-03-20T16:47:23.746Z,8.77
2023-03-20T16:50:05.727Z,9.93
2023-03-20T16:52:39.342Z,15.65
2023-03-20T16:55:16.785Z,18.90
2023-03-20T16:57:48.191Z,11.68
2023-03-20T17:00:23.838Z,17.02
2023-03-20T17:02:59.492Z,8.00
2023-03-20T17:05:42.621Z,9.23
2023-03-20T17:08:14.645Z,7.13
2023-03-20T17:10:45.718Z,6.50
2023-03-20T17:13:13.536Z,8.73
2023-03-20T17:15:41.160Z,7.38
2023-03-20T17:18:13.187Z,10.90
2023-03-20T17:20:41.476Z,9.30
2023-03-20T17:23:16.606Z,13.57
2023-03-20T17:25:44.593Z,13.18
2023-03-20T17:28:20.532Z,15.70
2023-03-20T17:30:50.260Z,15.02
2023-03-20T17:33:21.012Z,22.50
2023-03-20T17:35:49.776Z,20.77
2023-03-20T17:38:21.698Z,22.70
2023-03-20T17:40:50.515Z,19.50
2023-03-20T17:43:19.469Z,17.52
2023-03-20T17:45:48.605Z,15.50
2023-03-20T17:48:20.776Z,13.15
2023-03-20T17:50:51.016Z,11.15
2023-03-20T17:53:21.871Z,12.30
2023-03-20T17:55:49.541Z,11.48
2023-03-20T17:58:20.490Z,12.23
2023-03-20T18:00:48.296Z,13.40
2023-03-20T18:03:20.752Z,12.95
2023-03-20T18:05:50.738Z,12.32
2023-03-20T18:08:23.189Z,14.18
2023-03-20T18:10:53.163Z,12.57
2023-03-20T18:13:22.136Z,11.65
2023-03-20T18:15:51.889Z,11.38
2023-03-20T18:18:23.747Z,10.23
2023-03-20T18:20:52.367Z,13.85
2023-03-20T18:23:21.816Z,14.03
2023-03-20T18:25:49.568Z,13.82
2023-03-20T18:28:22.759Z,14.10
2023-03-20T18:30:50.860Z,15.23
2023-03-20T18:33:19.344Z,17.25
2023-03-20T18:35:48.148Z,15.73
2023-03-20T18:38:16.045Z,16.35
2023-03-20T18:40:47.514Z,18.25
2023-03-20T18:43:15.405Z,16.05
2023-03-20T18:45:43.211Z,18.27
2023-03-20T18:48:13.425Z,19.57
2023-03-20T18:50:43.477Z,18.75
2023-03-20T18:53:11.800Z,21.95
2023-03-20T18:55:39.636Z,19.92
2023-03-20T18:58:20.796Z,23.73
2023-03-20T19:00:48.632Z,19.63
2023-03-20T19:03:16.521Z,21.02
2023-03-20T19:05:44.584Z,18.75
2023-03-20T19:08:15.707Z,23.20
2023-03-20T19:10:45.122Z,24.90
2023-03-20T19:13:16.942Z,25.53
2023-03-20T19:15:46.074Z,27.20
2023-03-20T19:18:17.976Z,31.25
2023-03-20T19:20:47.977Z,27.48
2023-03-20T19:23:17.601Z,23.15
2023-03-20T19:25:48.213Z,19.33
2023-03-20T19:28:34.549Z,18.08
2023-03-20T19:31:02.873Z,18.88
2023-03-20T19:33:31.437Z,20.10
2023-03-20T19:36:03.228Z,16.90
2023-03-20T19:38:33.412Z,17.67
2023-03-20T19:41:03.730Z,16.80
2023-03-20T19:43:33.126Z,17.20
2023-03-20T19:46:01.034Z,15.73
2023-03-20T19:48:47.028Z,18.52
2023-03-20T19:51:19.411Z,16.67
2023-03-20T19:53:47.966Z,17.80
2023-03-20T19:56:17.528Z,17.48
2023-03-20T19:58:47.597Z,15.57
2023-03-20T20:01:18.553Z,14.43
2023-03-20T20:03:47.550Z,14.77
2023-03-20T20:06:15.999Z,13.60
2023-03-20T20:08:48.746Z,11.07
2023-03-20T20:11:17.794Z,12.40
2023-03-20T20:16:35.392Z,15.07
2023-03-20T20:19:03.941Z,16.45
2023-03-20T20:22:17.266Z,13.13
2023-03-20T20:24:20.378Z,13.90
2023-03-20T20:26:54.960Z,22.45
2023-03-20T20:29:29.670Z,19.33
2023-03-20T20:31:57.531Z,12.95
2023-03-20T20:35:22.416Z,10.52
2023-03-20T20:40:02.757Z,12.13
2023-03-20T20:42:30.656Z,10.13
2023-03-20T20:44:59.867Z,9.48
2023-03-20T20:47:27.662Z,11.63
2023-03-20T20:49:55.511Z,11.50
2023-03-20T20:52:23.414Z,12.45
2023-03-20T20:54:51.337Z,12.40
2023-03-20T20:57:19.159Z,14.85
2023-03-20T20:59:46.934Z,15.00
2023-03-20T21:02:17.525Z,13.80
2023-03-20T21:04:45.443Z,9.60
2023-03-20T21:07:14.344Z,11.50
2023-03-20T21:09:42.055Z,11.48
2023-03-20T21:12:22.696Z,10.07
2023-03-20T21:14:59.217Z,10.27
2023-03-20T21:17:29.632Z,9.50
2023-03-20T21:19:57.353Z,9.33
2023-03-20T21:22:25.795Z,10.00
2023-03-20T21:25:11.058Z,10.43
2023-03-20T21:27:41.808Z,13.13
2023-03-20T21:30:11.222Z,15.10
2023-03-20T21:32:40.772Z,11.03
2023-03-20T21:35:09.478Z,11.10
2023-03-20T21:40:26.361Z,15.10
2023-03-20T21:42:54.195Z,13.80
2023-03-20T21:57:15.554Z,11.45
2023-03-20T21:59:54.383Z,12.17
2023-03-20T22:02:21.365Z,9.90
2023-03-20T22:17:03.420Z,10.38
2023-03-20T22:20:02.970Z,11.50
2023-03-20T22:25:16.565Z,9.82
2023-03-20T22:28:06.316Z,10.57
2023-03-20T22:39:27.069Z,6.80
2023-03-20T22:47:04.858Z,8.18
2023-03-20T22:49:32.868Z,8.25
2023-03-20T22:52:24.512Z,9.25
2023-03-20T22:54:50.089Z,8.27
2023-03-20T22:57:17.724Z,10.45
2023-03-20T22:59:45.753Z,9.30
2023-03-20T23:02:13.374Z,11.48
2023-03-20T23:04:41.519Z,10.32
2023-03-20T23:07:09.495Z,8.53
2023-03-20T23:09:37.637Z,9.27
2023-03-20T23:12:07.443Z,8.25
2023-03-20T23:14:45.483Z,9.25
2023-03-20T23:17:14.166Z,7.28
2023-03-20T23:19:49.199Z,7.73
2023-03-20T23:22:20.709Z,8.15
2023-03-20T23:24:48.463Z,8.48
2023-03-20T23:27:19.454Z,10.10
2023-03-20T23:29:47.425Z,7.85
2023-03-20T23:32:15.360Z,8.80
2023-03-20T23:34:42.969Z,9.75
2023-03-20T23:37:10.676Z,8.48
2023-03-20T23:39:38.284Z,7.60
2023-03-20T23:42:17.366Z,8.65
2023-03-20T23:44:57.391Z,8.63
2023-03-20T23:47:38.506Z,9.18
2023-03-20T23:50:20.716Z,7.10
2023-03-20T23:53:01.060Z,8.00
2023-03-20T23:55:35.677Z,9.40
2023-03-20T23:58:04.195Z,7.97
